sensor_id;sensor_type;location;lat;lon;timestamp;P1;durP1;ratioP1;P2;durP2;ratioP2
69856;SDS011;57147;53.582;10.112;2022-11-13T00:03:28;11.88;;;8.57;;
69856;SDS011;57147;53.582;10.112;2022-11-13T00:08:28;13.43;;;8.63;;
69856;SDS011;57147;53.582;10.112;2022-11-13T00:13:31;12.05;;;8.82;;
69856;SDS011;57147;53.582;10.112;2022-11-13T00:18:33;12.07;;;9.07;;
69856;SDS011;57147;53.582;10.112;2022-11-13T00:23:34;13.50;;;9.70;;
69856;SDS011;57147;53.582;10.112;2022-11-13T00:28:38;14.07;;;9.52;;
69856;SDS011;57147;53.582;10.112;2022-11-13T00:33:38;13.15;;;9.48;;
69856;SDS011;57147;53.582;10.112;2022-11-13T00:38:39;17.98;;;11.23;;
69856;SDS011;57147;53.582;10.112;2022-11-13T00:43:42;16.80;;;10.88;;
69856;SDS011;57147;53.582;10.112;2022-11-13T00:48:43;15.77;;;9.73;;
69856;SDS011;57147;53.582;10.112;2022-11-13T00:53:44;16.30;;;9.75;;
69856;SDS011;57147;53.582;10.112;2022-11-13T00:58:47;13.93;;;8.55;;
69856;SDS011;57147;53.582;10.112;2022-11-13T01:03:47;14.38;;;9.23;;
69856;SDS011;57147;53.582;10.112;2022-11-13T01:08:48;17.00;;;11.23;;
69856;SDS011;57147;53.582;10.112;2022-11-13T01:13:52;15.98;;;10.35;;
69856;SDS011;57147;53.582;10.112;2022-11-13T01:18:53;16.38;;;9.90;;
69856;SDS011;57147;53.582;10.112;2022-11-13T01:23:54;19.70;;;11.75;;
69856;SDS011;57147;53.582;10.112;2022-11-13T01:28:58;17.92;;;12.63;;
69856;SDS011;57147;53.582;10.112;2022-11-13T01:33:59;15.65;;;10.20;;
69856;SDS011;57147;53.582;10.112;2022-11-13T01:38:59;15.00;;;10.82;;
69856;SDS011;57147;53.582;10.112;2022-11-13T01:44:02;15.00;;;10.30;;
69856;SDS011;57147;53.582;10.112;2022-11-13T01:49:11;15.25;;;9.75;;
69856;SDS011;57147;53.582;10.112;2022-11-13T01:54:20;16.63;;;10.80;;
69856;SDS011;57147;53.582;10.112;2022-11-13T01:59:26;14.15;;;9.88;;
69856;SDS011;57147;53.582;10.112;2022-11-13T02:04:29;15.80;;;9.90;;
69856;SDS011;57147;53.582;10.112;2022-11-13T02:09:33;14.85;;;9.82;;
69856;SDS011;57147;53.582;10.112;2022-11-13T02:14:39;15.30;;;10.32;;
69856;SDS011;57147;53.582;10.112;2022-11-13T02:19:44;16.50;;;9.95;;
69856;SDS011;57147;53.582;10.112;2022-11-13T02:29:51;16.55;;;10.15;;
69856;SDS011;57147;53.582;10.112;2022-11-13T02:34:52;16.60;;;11.13;;
69856;SDS011;57147;53.582;10.112;2022-11-13T02:39:55;16.67;;;10.95;;
69856;SDS011;57147;53.582;10.112;2022-11-13T02:44:56;17.83;;;11.55;;
69856;SDS011;57147;53.582;10.112;2022-11-13T02:49:56;19.40;;;10.75;;
69856;SDS011;57147;53.582;10.112;2022-11-13T02:54:59;16.90;;;10.90;;
69856;SDS011;57147;53.582;10.112;2022-11-13T03:00:00;16.40;;;10.63;;
69856;SDS011;57147;53.582;10.112;2022-11-13T03:05:01;15.85;;;11.02;;
69856;SDS011;57147;53.582;10.112;2022-11-13T03:10:05;17.42;;;11.40;;
69856;SDS011;57147;53.582;10.112;2022-11-13T03:15:07;19.45;;;10.65;;
69856;SDS011;57147;53.582;10.112;2022-11-13T03:20:08;18.23;;;12.15;;
69856;SDS011;57147;53.582;10.112;2022-11-13T03:25:12;17.67;;;12.80;;
69856;SDS011;57147;53.582;10.112;2022-11-13T03:30:12;19.42;;;12.60;;
69856;SDS011;57147;53.582;10.112;2022-11-13T03:35:13;19.50;;;11.40;;
69856;SDS011;57147;53.582;10.112;2022-11-13T03:40:16;18.50;;;11.20;;
69856;SDS011;57147;53.582;10.112;2022-11-13T03:45:17;18.00;;;11.43;;
69856;SDS011;57147;53.582;10.112;2022-11-13T03:50:18;18.05;;;11.05;;
69856;SDS011;57147;53.582;10.112;2022-11-13T03:55:21;18.45;;;10.80;;
69856;SDS011;57147;53.582;10.112;2022-11-13T04:00:22;18.05;;;12.20;;
69856;SDS011;57147;53.582;10.112;2022-11-13T04:05:22;20.55;;;12.60;;
69856;SDS011;57147;53.582;10.112;2022-11-13T04:10:25;18.25;;;9.93;;
69856;SDS011;57147;53.582;10.112;2022-11-13T04:15:26;18.00;;;10.82;;
69856;SDS011;57147;53.582;10.112;2022-11-13T04:20:27;19.65;;;11.95;;
69856;SDS011;57147;53.582;10.112;2022-11-13T04:25:30;17.10;;;11.23;;
69856;SDS011;57147;53.582;10.112;2022-11-13T04:30:30;22.02;;;13.02;;
69856;SDS011;57147;53.582;10.112;2022-11-13T04:35:31;17.65;;;11.10;;
69856;SDS011;57147;53.582;10.112;2022-11-13T04:40:34;18.38;;;11.55;;
69856;SDS011;57147;53.582;10.112;2022-11-13T04:45:35;20.83;;;10.80;;
69856;SDS011;57147;53.582;10.112;2022-11-13T04:50:36;16.98;;;10.00;;
69856;SDS011;57147;53.582;10.112;2022-11-13T04:55:39;16.95;;;10.75;;
69856;SDS011;57147;53.582;10.112;2022-11-13T05:00:39;18.77;;;10.93;;
69856;SDS011;57147;53.582;10.112;2022-11-13T05:05:40;18.67;;;12.73;;
69856;SDS011;57147;53.582;10.112;2022-11-13T05:10:43;16.60;;;9.95;;
69856;SDS011;57147;53.582;10.112;2022-11-13T05:15:44;17.17;;;10.80;;
69856;SDS011;57147;53.582;10.112;2022-11-13T05:20:44;20.33;;;11.80;;
69856;SDS011;57147;53.582;10.112;2022-11-13T05:25:47;19.23;;;11.55;;
69856;SDS011;57147;53.582;10.112;2022-11-13T05:30:48;20.10;;;12.07;;
69856;SDS011;57147;53.582;10.112;2022-11-13T05:35:48;19.63;;;11.95;;
69856;SDS011;57147;53.582;10.112;2022-11-13T05:40:52;17.77;;;10.60;;
69856;SDS011;57147;53.582;10.112;2022-11-13T05:45:57;19.00;;;11.30;;
69856;SDS011;57147;53.582;10.112;2022-11-13T05:50:59;18.00;;;11.07;;
69856;SDS011;57147;53.582;10.112;2022-11-13T05:56:04;20.38;;;11.35;;
69856;SDS011;57147;53.582;10.112;2022-11-13T06:01:07;17.20;;;10.95;;
69856;SDS011;57147;53.582;10.112;2022-11-13T06:06:10;19.35;;;11.73;;
69856;SDS011;57147;53.582;10.112;2022-11-13T06:11:15;19.98;;;12.95;;
69856;SDS011;57147;53.582;10.112;2022-11-13T06:16:17;20.85;;;11.63;;
69856;SDS011;57147;53.582;10.112;2022-11-13T06:21:21;21.00;;;11.07;;
69856;SDS011;57147;53.582;10.112;2022-11-13T06:26:27;19.35;;;12.95;;
69856;SDS011;57147;53.582;10.112;2022-11-13T06:31:29;19.83;;;11.73;;
69856;SDS011;57147;53.582;10.112;2022-11-13T06:36:32;20.45;;;11.63;;
69856;SDS011;57147;53.582;10.112;2022-11-13T06:41:37;26.10;;;15.20;;
69856;SDS011;57147;53.582;10.112;2022-11-13T06:46:37;21.38;;;11.93;;
69856;SDS011;57147;53.582;10.112;2022-11-13T06:51:38;24.20;;;14.50;;
69856;SDS011;57147;53.582;10.112;2022-11-13T06:56:41;23.08;;;12.80;;
69856;SDS011;57147;53.582;10.112;2022-11-13T07:01:41;23.55;;;13.00;;
69856;SDS011;57147;53.582;10.112;2022-11-13T07:06:42;19.13;;;10.82;;
69856;SDS011;57147;53.582;10.112;2022-11-13T07:11:45;21.20;;;12.18;;
69856;SDS011;57147;53.582;10.112;2022-11-13T07:16:46;20.48;;;11.85;;
69856;SDS011;57147;53.582;10.112;2022-11-13T07:21:46;22.90;;;16.50;;
69856;SDS011;57147;53.582;10.112;2022-11-13T07:26:49;24.70;;;14.20;;
69856;SDS011;57147;53.582;10.112;2022-11-13T07:31:50;24.52;;;13.57;;
69856;SDS011;57147;53.582;10.112;2022-11-13T07:36:50;21.30;;;10.85;;
69856;SDS011;57147;53.582;10.112;2022-11-13T07:41:53;21.88;;;11.25;;
69856;SDS011;57147;53.582;10.112;2022-11-13T07:46:54;21.25;;;11.73;;
69856;SDS011;57147;53.582;10.112;2022-11-13T07:51:55;21.38;;;11.50;;
69856;SDS011;57147;53.582;10.112;2022-11-13T07:56:58;18.40;;;10.10;;
69856;SDS011;57147;53.582;10.112;2022-11-13T08:01:58;18.92;;;10.98;;
69856;SDS011;57147;53.582;10.112;2022-11-13T08:06:59;21.42;;;11.82;;
69856;SDS011;57147;53.582;10.112;2022-11-13T08:12:02;18.90;;;10.40;;
69856;SDS011;57147;53.582;10.112;2022-11-13T08:17:03;20.65;;;11.65;;
69856;SDS011;57147;53.582;10.112;2022-11-13T08:22:03;22.33;;;11.40;;
69856;SDS011;57147;53.582;10.112;2022-11-13T08:27:07;21.40;;;12.65;;
69856;SDS011;57147;53.582;10.112;2022-11-13T08:32:08;21.65;;;11.25;;
69856;SDS011;57147;53.582;10.112;2022-11-13T08:37:08;23.73;;;12.25;;
69856;SDS011;57147;53.582;10.112;2022-11-13T08:42:11;22.15;;;10.95;;
69856;SDS011;57147;53.582;10.112;2022-11-13T08:47:12;22.90;;;13.73;;
69856;SDS011;57147;53.582;10.112;2022-11-13T08:52:13;23.77;;;11.52;;
69856;SDS011;57147;53.582;10.112;2022-11-13T08:57:16;21.30;;;10.93;;
69856;SDS011;57147;53.582;10.112;2022-11-13T09:02:17;22.83;;;12.35;;
69856;SDS011;57147;53.582;10.112;2022-11-13T09:07:17;20.77;;;11.02;;
69856;SDS011;57147;53.582;10.112;2022-11-13T09:12:21;22.58;;;10.75;;
69856;SDS011;57147;53.582;10.112;2022-11-13T09:17:21;20.73;;;11.65;;
69856;SDS011;57147;53.582;10.112;2022-11-13T09:22:22;21.83;;;11.75;;
69856;SDS011;57147;53.582;10.112;2022-11-13T09:27:25;24.42;;;11.55;;
69856;SDS011;57147;53.582;10.112;2022-11-13T09:32:25;21.75;;;11.27;;
69856;SDS011;57147;53.582;10.112;2022-11-13T09:37:26;19.52;;;11.10;;
69856;SDS011;57147;53.582;10.112;2022-11-13T09:42:29;19.67;;;10.50;;
69856;SDS011;57147;53.582;10.112;2022-11-13T09:47:32;20.80;;;12.32;;
69856;SDS011;57147;53.582;10.112;2022-11-13T09:57:42;20.77;;;11.57;;
69856;SDS011;57147;53.582;10.112;2022-11-13T10:02:52;22.60;;;11.93;;
69856;SDS011;57147;53.582;10.112;2022-11-13T10:08:13;23.00;;;13.48;;
69856;SDS011;57147;53.582;10.112;2022-11-13T10:13:19;22.10;;;13.18;;
69856;SDS011;57147;53.582;10.112;2022-11-13T10:18:24;23.92;;;14.35;;
69856;SDS011;57147;53.582;10.112;2022-11-13T10:23:29;22.33;;;12.77;;
69856;SDS011;57147;53.582;10.112;2022-11-13T10:28:34;22.05;;;12.10;;
69856;SDS011;57147;53.582;10.112;2022-11-13T10:33:34;21.75;;;12.43;;
69856;SDS011;57147;53.582;10.112;2022-11-13T10:38:40;22.23;;;12.90;;
69856;SDS011;57147;53.582;10.112;2022-11-13T10:43:52;24.23;;;13.82;;
69856;SDS011;57147;53.582;10.112;2022-11-13T10:48:53;21.73;;;13.68;;
69856;SDS011;57147;53.582;10.112;2022-11-13T10:53:54;19.70;;;11.50;;
69856;SDS011;57147;53.582;10.112;2022-11-13T10:59:04;21.80;;;11.52;;
69856;SDS011;57147;53.582;10.112;2022-11-13T11:04:11;20.95;;;11.82;;
69856;SDS011;57147;53.582;10.112;2022-11-13T11:09:15;22.58;;;12.52;;
69856;SDS011;57147;53.582;10.112;2022-11-13T11:14:23;20.15;;;11.15;;
69856;SDS011;57147;53.582;10.112;2022-11-13T11:19:28;21.92;;;12.27;;
69856;SDS011;57147;53.582;10.112;2022-11-13T11:24:34;21.73;;;11.02;;
69856;SDS011;57147;53.582;10.112;2022-11-13T11:29:41;23.52;;;12.77;;
69856;SDS011;57147;53.582;10.112;2022-11-13T11:34:49;20.65;;;11.82;;
69856;SDS011;57147;53.582;10.112;2022-11-13T11:39:53;20.50;;;11.20;;
69856;SDS011;57147;53.582;10.112;2022-11-13T11:45:02;20.48;;;11.85;;
69856;SDS011;57147;53.582;10.112;2022-11-13T11:50:11;18.25;;;11.35;;
69856;SDS011;57147;53.582;10.112;2022-11-13T11:55:22;17.17;;;10.90;;
69856;SDS011;57147;53.582;10.112;2022-11-13T12:00:33;17.17;;;10.55;;
69856;SDS011;57147;53.582;10.112;2022-11-13T12:05:40;18.23;;;10.10;;
69856;SDS011;57147;53.582;10.112;2022-11-13T12:10:51;16.70;;;10.50;;
69856;SDS011;57147;53.582;10.112;2022-11-13T12:16:03;17.38;;;11.48;;
69856;SDS011;57147;53.582;10.112;2022-11-13T12:21:11;14.18;;;9.80;;
69856;SDS011;57147;53.582;10.112;2022-11-13T12:26:21;13.77;;;9.07;;
69856;SDS011;57147;53.582;10.112;2022-11-13T12:31:36;12.68;;;8.05;;
69856;SDS011;57147;53.582;10.112;2022-11-13T12:36:45;13.60;;;8.43;;
69856;SDS011;57147;53.582;10.112;2022-11-13T12:41:48;13.77;;;8.77;;
69856;SDS011;57147;53.582;10.112;2022-11-13T12:46:54;13.30;;;8.50;;
69856;SDS011;57147;53.582;10.112;2022-11-13T12:51:57;13.90;;;8.02;;
69856;SDS011;57147;53.582;10.112;2022-11-13T13:02:29;12.55;;;8.55;;
69856;SDS011;57147;53.582;10.112;2022-11-13T13:07:43;12.77;;;8.40;;
69856;SDS011;57147;53.582;10.112;2022-11-13T13:12:54;11.98;;;7.90;;
69856;SDS011;57147;53.582;10.112;2022-11-13T13:18:09;12.52;;;7.72;;
69856;SDS011;57147;53.582;10.112;2022-11-13T13:23:24;14.32;;;8.85;;
69856;SDS011;57147;53.582;10.112;2022-11-13T13:28:26;11.02;;;7.80;;
69856;SDS011;57147;53.582;10.112;2022-11-13T13:33:31;11.95;;;8.07;;
69856;SDS011;57147;53.582;10.112;2022-11-13T13:38:44;12.82;;;8.43;;
69856;SDS011;57147;53.582;10.112;2022-11-13T13:43:53;13.35;;;8.32;;
69856;SDS011;57147;53.582;10.112;2022-11-13T13:49:03;11.57;;;7.90;;
69856;SDS011;57147;53.582;10.112;2022-11-13T13:54:06;15.20;;;9.18;;
69856;SDS011;57147;53.582;10.112;2022-11-13T13:59:12;15.30;;;9.60;;
69856;SDS011;57147;53.582;10.112;2022-11-13T14:04:19;19.60;;;12.48;;
69856;SDS011;57147;53.582;10.112;2022-11-13T14:09:22;14.20;;;10.18;;
69856;SDS011;57147;53.582;10.112;2022-11-13T14:14:23;16.75;;;10.75;;
69856;SDS011;57147;53.582;10.112;2022-11-13T14:19:28;18.67;;;12.75;;
69856;SDS011;57147;53.582;10.112;2022-11-13T14:24:30;20.02;;;12.10;;
69856;SDS011;57147;53.582;10.112;2022-11-13T14:29:34;19.52;;;13.20;;
69856;SDS011;57147;53.582;10.112;2022-11-13T14:34:41;27.15;;;16.30;;
69856;SDS011;57147;53.582;10.112;2022-11-13T14:39:43;25.52;;;16.67;;
69856;SDS011;57147;53.582;10.112;2022-11-13T14:44:46;23.17;;;15.32;;
69856;SDS011;57147;53.582;10.112;2022-11-13T14:49:49;31.58;;;17.63;;
69856;SDS011;57147;53.582;10.112;2022-11-13T14:54:59;23.77;;;13.95;;
69856;SDS011;57147;53.582;10.112;2022-11-13T15:00:08;27.58;;;16.30;;
69856;SDS011;57147;53.582;10.112;2022-11-13T15:05:12;27.52;;;17.27;;
69856;SDS011;57147;53.582;10.112;2022-11-13T15:10:14;24.55;;;14.38;;
69856;SDS011;57147;53.582;10.112;2022-11-13T15:15:17;24.73;;;15.32;;
69856;SDS011;57147;53.582;10.112;2022-11-13T15:20:23;20.90;;;12.25;;
69856;SDS011;57147;53.582;10.112;2022-11-13T15:25:25;16.48;;;9.50;;
69856;SDS011;57147;53.582;10.112;2022-11-13T15:30:26;17.42;;;9.73;;
69856;SDS011;57147;53.582;10.112;2022-11-13T15:35:29;10.93;;;7.22;;
69856;SDS011;57147;53.582;10.112;2022-11-13T15:40:29;8.13;;;5.88;;
69856;SDS011;57147;53.582;10.112;2022-11-13T15:45:30;10.57;;;6.85;;
69856;SDS011;57147;53.582;10.112;2022-11-13T15:55:36;6.32;;;4.13;;
69856;SDS011;57147;53.582;10.112;2022-11-13T16:00:39;8.55;;;4.72;;
69856;SDS011;57147;53.582;10.112;2022-11-13T16:05:43;9.23;;;4.47;;
69856;SDS011;57147;53.582;10.112;2022-11-13T16:10:44;7.03;;;3.95;;
69856;SDS011;57147;53.582;10.112;2022-11-13T16:15:44;6.72;;;4.05;;
69856;SDS011;57147;53.582;10.112;2022-11-13T16:20:47;6.50;;;4.15;;
69856;SDS011;57147;53.582;10.112;2022-11-13T16:25:48;6.22;;;3.90;;
69856;SDS011;57147;53.582;10.112;2022-11-13T16:30:49;7.35;;;3.75;;
69856;SDS011;57147;53.582;10.112;2022-11-13T16:35:53;6.10;;;4.30;;
69856;SDS011;57147;53.582;10.112;2022-11-13T16:40:53;7.65;;;4.65;;
69856;SDS011;57147;53.582;10.112;2022-11-13T16:45:54;6.22;;;4.10;;
69856;SDS011;57147;53.582;10.112;2022-11-13T16:50:57;7.68;;;5.63;;
69856;SDS011;57147;53.582;10.112;2022-11-13T16:55:57;8.05;;;5.50;;
69856;SDS011;57147;53.582;10.112;2022-11-13T17:00:59;6.05;;;3.95;;
69856;SDS011;57147;53.582;10.112;2022-11-13T17:06:03;6.85;;;4.00;;
69856;SDS011;57147;53.582;10.112;2022-11-13T17:11:04;7.13;;;4.47;;
69856;SDS011;57147;53.582;10.112;2022-11-13T17:16:04;8.95;;;6.43;;
69856;SDS011;57147;53.582;10.112;2022-11-13T17:21:08;7.75;;;4.57;;
69856;SDS011;57147;53.582;10.112;2022-11-13T17:26:09;6.57;;;4.32;;
69856;SDS011;57147;53.582;10.112;2022-11-13T17:31:10;5.82;;;3.40;;
69856;SDS011;57147;53.582;10.112;2022-11-13T17:36:13;4.53;;;3.20;;
69856;SDS011;57147;53.582;10.112;2022-11-13T17:41:14;5.15;;;3.42;;
69856;SDS011;57147;53.582;10.112;2022-11-13T17:46:16;6.07;;;3.75;;
69856;SDS011;57147;53.582;10.112;2022-11-13T17:51:19;4.93;;;2.75;;
69856;SDS011;57147;53.582;10.112;2022-11-13T17:56:20;5.30;;;3.67;;
69856;SDS011;57147;53.582;10.112;2022-11-13T18:01:21;7.72;;;6.55;;
69856;SDS011;57147;53.582;10.112;2022-11-13T18:06:24;5.15;;;3.25;;
69856;SDS011;57147;53.582;10.112;2022-11-13T18:11:26;5.85;;;3.42;;
69856;SDS011;57147;53.582;10.112;2022-11-13T18:16:28;5.88;;;3.67;;
69856;SDS011;57147;53.582;10.112;2022-11-13T18:21:33;5.97;;;3.40;;
69856;SDS011;57147;53.582;10.112;2022-11-13T18:26:34;6.18;;;4.22;;
69856;SDS011;57147;53.582;10.112;2022-11-13T18:31:35;6.07;;;3.13;;
69856;SDS011;57147;53.582;10.112;2022-11-13T18:36:39;5.18;;;3.15;;
69856;SDS011;57147;53.582;10.112;2022-11-13T18:41:39;5.07;;;3.40;;
69856;SDS011;57147;53.582;10.112;2022-11-13T18:46:40;5.40;;;3.35;;
69856;SDS011;57147;53.582;10.112;2022-11-13T18:51:44;8.45;;;4.65;;
69856;SDS011;57147;53.582;10.112;2022-11-13T18:56:44;6.10;;;3.70;;
69856;SDS011;57147;53.582;10.112;2022-11-13T19:01:45;7.25;;;4.90;;
69856;SDS011;57147;53.582;10.112;2022-11-13T19:06:48;8.43;;;3.97;;
69856;SDS011;57147;53.582;10.112;2022-11-13T19:11:49;8.45;;;4.85;;
69856;SDS011;57147;53.582;10.112;2022-11-13T19:16:49;9.02;;;5.00;;
69856;SDS011;57147;53.582;10.112;2022-11-13T19:21:53;7.30;;;4.57;;
69856;SDS011;57147;53.582;10.112;2022-11-13T19:26:53;8.32;;;5.35;;
69856;SDS011;57147;53.582;10.112;2022-11-13T19:31:54;7.97;;;4.78;;
69856;SDS011;57147;53.582;10.112;2022-11-13T19:36:57;10.07;;;6.15;;
69856;SDS011;57147;53.582;10.112;2022-11-13T19:41:58;10.70;;;6.65;;
69856;SDS011;57147;53.582;10.112;2022-11-13T19:46:58;19.00;;;12.60;;
69856;SDS011;57147;53.582;10.112;2022-11-13T19:52:01;12.55;;;7.03;;
69856;SDS011;57147;53.582;10.112;2022-11-13T19:57:02;11.70;;;6.50;;
69856;SDS011;57147;53.582;10.112;2022-11-13T20:02:03;17.52;;;10.88;;
69856;SDS011;57147;53.582;10.112;2022-11-13T20:07:06;18.70;;;11.05;;
69856;SDS011;57147;53.582;10.112;2022-11-13T20:12:06;19.98;;;12.13;;
69856;SDS011;57147;53.582;10.112;2022-11-13T20:17:07;19.83;;;11.57;;
69856;SDS011;57147;53.582;10.112;2022-11-13T20:22:10;18.92;;;10.27;;
69856;SDS011;57147;53.582;10.112;2022-11-13T20:27:11;18.40;;;10.85;;
69856;SDS011;57147;53.582;10.112;2022-11-13T20:32:11;21.00;;;12.38;;
69856;SDS011;57147;53.582;10.112;2022-11-13T20:37:14;17.80;;;11.82;;
69856;SDS011;57147;53.582;10.112;2022-11-13T20:42:15;20.08;;;11.07;;
69856;SDS011;57147;53.582;10.112;2022-11-13T20:47:16;21.52;;;12.63;;
69856;SDS011;57147;53.582;10.112;2022-11-13T20:52:19;26.38;;;16.25;;
69856;SDS011;57147;53.582;10.112;2022-11-13T20:57:19;24.50;;;15.63;;
69856;SDS011;57147;53.582;10.112;2022-11-13T21:02:20;22.67;;;14.43;;
69856;SDS011;57147;53.582;10.112;2022-11-13T21:07:23;22.48;;;14.07;;
69856;SDS011;57147;53.582;10.112;2022-11-13T21:12:24;22.30;;;13.95;;
69856;SDS011;57147;53.582;10.112;2022-11-13T21:17:24;25.33;;;17.00;;
69856;SDS011;57147;53.582;10.112;2022-11-13T21:22:29;22.75;;;13.10;;
69856;SDS011;57147;53.582;10.112;2022-11-13T21:27:30;31.95;;;19.17;;
69856;SDS011;57147;53.582;10.112;2022-11-13T21:32:30;22.85;;;13.60;;
69856;SDS011;57147;53.582;10.112;2022-11-13T21:37:33;23.73;;;15.43;;
69856;SDS011;57147;53.582;10.112;2022-11-13T21:42:34;28.63;;;17.13;;
69856;SDS011;57147;53.582;10.112;2022-11-13T21:47:34;29.98;;;18.58;;
69856;SDS011;57147;53.582;10.112;2022-11-13T21:52:38;25.23;;;15.93;;
69856;SDS011;57147;53.582;10.112;2022-11-13T21:57:38;26.52;;;15.82;;
69856;SDS011;57147;53.582;10.112;2022-11-13T22:02:39;25.10;;;15.45;;
69856;SDS011;57147;53.582;10.112;2022-11-13T22:07:42;30.48;;;19.77;;
69856;SDS011;57147;53.582;10.112;2022-11-13T22:12:43;24.58;;;16.17;;
69856;SDS011;57147;53.582;10.112;2022-11-13T22:17:43;26.25;;;14.27;;
69856;SDS011;57147;53.582;10.112;2022-11-13T22:22:46;23.58;;;14.70;;
69856;SDS011;57147;53.582;10.112;2022-11-13T22:27:47;27.83;;;16.27;;
69856;SDS011;57147;53.582;10.112;2022-11-13T22:32:47;24.90;;;15.00;;
69856;SDS011;57147;53.582;10.112;2022-11-13T22:37:51;25.25;;;14.90;;
69856;SDS011;57147;53.582;10.112;2022-11-13T22:42:53;25.35;;;15.95;;
69856;SDS011;57147;53.582;10.112;2022-11-13T22:47:53;23.92;;;14.82;;
69856;SDS011;57147;53.582;10.112;2022-11-13T22:52:57;25.83;;;14.60;;
69856;SDS011;57147;53.582;10.112;2022-11-13T22:57:57;27.60;;;15.32;;
69856;SDS011;57147;53.582;10.112;2022-11-13T23:02:58;25.98;;;15.43;;
69856;SDS011;57147;53.582;10.112;2022-11-13T23:08:01;27.77;;;16.00;;
69856;SDS011;57147;53.582;10.112;2022-11-13T23:13:02;25.55;;;15.38;;
69856;SDS011;57147;53.582;10.112;2022-11-13T23:18:03;26.17;;;14.73;;
69856;SDS011;57147;53.582;10.112;2022-11-13T23:23:07;26.33;;;16.80;;
69856;SDS011;57147;53.582;10.112;2022-11-13T23:28:08;28.25;;;16.08;;
69856;SDS011;57147;53.582;10.112;2022-11-13T23:33:09;29.80;;;17.48;;
69856;SDS011;57147;53.582;10.112;2022-11-13T23:38:12;27.23;;;15.95;;
69856;SDS011;57147;53.582;10.112;2022-11-13T23:43:13;29.55;;;17.02;;
69856;SDS011;57147;53.582;10.112;2022-11-13T23:48:14;32.42;;;18.25;;
69856;SDS011;57147;53.582;10.112;2022-11-13T23:53:17;28.63;;;16.00;;
69856;SDS011;57147;53.582;10.112;2022-11-13T23:58:18;27.80;;;16.60;;
